Bluewater, NM (87005)

6:48 PM MDT on September 18, 2014 (GMT -0600)
Grants-Milan Municipal | Change Station
CLOSE
Current Station
Airport
Location: Grants-Milan,
Elevation: 6519 ft
Nearby Weather Stations

Elev 6519 ft 35.17 °N, 107.90 °W | Updated 12 minutes ago

Clear
Clear
73 °F
Feels Like 73 °F
N
6
Wind Variable Wind from SSE

Today
High -- | Low -- °F
--% Chance of Precip.
Yesterday
High -- | Low -- °F
Precip. -- in
6:56 AM 7:14 PM
Waning Crescent, 23% visible
Pressure 30.07 in
Visibility 10.0 miles
Clouds Clear
Dew Point 39 °F
Humidity 29%
Rainfall 0.00 in
Snow Depth 2 in , 0 in , 2 in
UV 0 out of 12
Pollen 1.40 out of 12
Air Quality Not available.
Flu Activity Not available.
METAR KGNT 190036Z AUTO 16005KT 10SM CLR 23/04 A3007 RMK AO2

More Conditions Fewer Conditions

Pressure 30.07 in
Visibility 10.0 miles
Clouds Clear
Dew Point 39 °F
Humidity 29%
Rainfall 0.00 in
Snow Depth 2 in , 0 in , 2 in
UV 0 out of 12
Pollen 1.40 out of 12
Air Quality Not available.
Flu Activity Not available.
METAR KGNT 190036Z AUTO 16005KT 10SM CLR 23/04 A3007 RMK AO2

More Conditions Fewer Conditions

10-Day Weather Forecast

Almanac

Astronomy

Sep. 18, 2014 Rise Set
Actual Time 6:56 AM MDT 7:14 PM MDT
Civil Twilight 6:31 AM MDT 7:39 PM MDT
Nautical Twilight 6:01 AM MDT 8:09 PM MDT
Astronomical Twilight 5:31 AM MDT 8:39 PM MDT
Moon 1:59 AM MDT (9/18) 3:59 PM MDT (9/18)
Length of Visible Light 13h 08m
Length of Day
12h 17m
Tomorrow will be 2m 11s shorter.
Waning Crescent, 23% of the Moon is Illuminated
Today
Waning Crescent
Sep 24
New
Oct 1
First Quarter
Oct 8
Full
Oct 15
Last Quarter

Today's Extremes

State Highs State Lows

Community

WunderPhotos

Upload Photos

1,754,510 photos uploaded!

Nearby

Snow Depth

Station Depth Elevation
Red River Pass #2 0 in 9850 ft
Quemazon 0 in 9500 ft
Wesner Springs 2 in 11120 ft
Tolby 0 in 10180 ft
Silver Creek Divide 2 in 9000 ft

Earthquake Activity

City Distance Mag. Time & Date
No recent earthquake activity has been reported nearby.
Minimum magnitude displayed is 2.5.

Coastal Water Temperatures

Place Temperature
No Stations Reporting

Nearby Weather Stations